Time;durP1;ratioP1;P1;durP2;ratioP2;P2;SDS_P1;SDS_P2;PMS_P1;PMS_P2;Temp;Humidity;BMP_temperature;BMP_pressure;BME280_temperature;BME280_humidity;BME280_pressure;Samples;Min_cycle;Max_cycle;Signal;HPM_P1;HPM_P2
2022/08/27 00:01:20;;;;;;;12.55;7.18;;;;;;;25.33;63.91;100813.28;5070063;27;96652;-70
2022/08/27 00:03:47;;;;;;;11.05;7.28;;;;;;;25.64;63.07;100811.19;5069483;27;96881;-71
2022/08/27 00:06:14;;;;;;;9.93;7.70;;;;;;;25.64;62.70;100813.91;5074896;27;99428;-71
2022/08/27 00:08:41;;;;;;;15.93;7.00;;;;;;;25.94;61.99;100805.47;5070590;27;98828;-71
2022/08/27 00:11:08;;;;;;;15.20;7.35;;;;;;;25.79;62.41;100802.44;5072697;27;97123;-71
2022/08/27 00:13:35;;;;;;;13.30;8.13;;;;;;;25.78;62.45;100803.44;5071105;27;97562;-70
2022/08/27 00:16:02;;;;;;;10.43;7.60;;;;;;;25.87;62.07;100796.25;5070910;27;99104;-71
2022/08/27 00:18:30;;;;;;;12.63;7.43;;;;;;;25.74;62.22;100807.44;5071108;27;99004;-71
2022/08/27 00:20:56;;;;;;;10.82;7.53;;;;;;;25.97;61.78;100793.50;5074358;27;97007;-71
2022/08/27 00:23:22;;;;;;;12.45;8.13;;;;;;;25.83;62.46;100791.28;5068767;27;96803;-71
2022/08/27 00:25:49;;;;;;;8.23;6.93;;;;;;;25.88;62.17;100789.81;5074162;27;99389;-71
2022/08/27 00:28:18;;;;;;;10.63;7.32;;;;;;;25.91;61.95;100785.97;5066394;27;99286;-70
2022/08/27 00:30:44;;;;;;;12.68;7.45;;;;;;;26.02;61.76;100777.63;5075326;27;98089;-70
2022/08/27 00:33:10;;;;;;;15.15;8.38;;;;;;;25.83;62.11;100772.34;5066245;27;96912;-70
2022/08/27 00:35:39;;;;;;;11.32;7.15;;;;;;;25.90;61.84;100777.00;5074001;27;99272;-70
2022/08/27 00:38:07;;;;;;;10.68;7.68;;;;;;;25.89;62.48;100777.16;5073054;27;100697;-70
2022/08/27 00:40:34;;;;;;;10.60;7.63;;;;;;;25.73;62.76;100770.53;5068484;27;96678;-70
2022/08/27 00:43:02;;;;;;;12.23;8.00;;;;;;;25.46;63.39;100778.63;5066431;27;96793;-70
2022/08/27 00:45:31;;;;;;;12.60;7.88;;;;;;;25.51;63.06;100775.47;5062451;27;99819;-71
2022/08/27 00:48:00;;;;;;;12.88;8.07;;;;;;;25.50;63.59;100780.03;5066795;27;98808;-71
2022/08/27 00:50:34;;;;;;;12.60;7.88;;;;;;;25.55;63.37;100777.72;5066564;27;96853;-70
2022/08/27 00:53:07;;;;;;;13.85;7.63;;;;;;;25.32;64.01;100782.69;5072056;27;97068;-71
2022/08/27 00:55:39;;;;;;;21.02;8.23;;;;;;;25.51;63.27;100770.91;5067631;27;99113;-70
2022/08/27 00:58:10;;;;;;;12.18;8.10;;;;;;;25.54;63.23;100778.72;5073839;27;99067;-69
2022/08/27 01:00:37;;;;;;;14.45;8.05;;;;;;;25.59;63.52;100772.91;5074105;27;96794;-70
2022/08/27 01:03:04;;;;;;;12.60;7.63;;;;;;;25.86;62.49;100777.47;5074100;27;96893;-70
2022/08/27 01:05:30;;;;;;;13.00;7.97;;;;;;;25.94;62.07;100772.13;5071350;27;99309;-71
2022/08/27 01:08:03;;;;;;;13.77;9.02;;;;;;;25.97;62.17;100771.81;5074659;27;98911;-70
2022/08/27 01:10:31;;;;;;;15.10;8.55;;;;;;;26.03;61.68;100771.22;5067249;27;96829;-71
2022/08/27 01:12:58;;;;;;;12.73;8.90;;;;;;;25.86;62.65;100766.63;5073123;27;96834;-71
2022/08/27 01:15:27;;;;;;;10.18;8.75;;;;;;;25.69;63.36;100776.41;5070659;27;99070;-70
2022/08/27 01:17:54;;;;;;;15.77;9.98;;;;;;;25.47;64.44;100784.91;5073996;27;99191;-71
2022/08/27 01:20:24;;;;;;;15.00;9.88;;;;;;;25.66;62.96;100782.13;5067485;27;96787;-70
2022/08/27 01:23:00;;;;;;;15.88;10.15;;;;;;;25.60;63.23;100788.16;5070370;27;97100;-70
2022/08/27 01:25:29;;;;;;;16.42;9.60;;;;;;;25.88;62.58;100781.72;5062351;27;99086;-71
2022/08/27 01:27:58;;;;;;;17.40;10.23;;;;;;;25.98;62.30;100778.94;5072528;27;99018;-72
2022/08/27 01:30:24;;;;;;;13.77;10.18;;;;;;;25.93;62.77;100783.97;5060751;27;97374;-71
2022/08/27 01:32:52;;;;;;;13.65;10.32;;;;;;;25.93;62.94;100789.41;5067478;27;96922;-70
2022/08/27 01:35:23;;;;;;;15.10;9.80;;;;;;;25.61;63.78;100787.97;5063144;27;99357;-70
2022/08/27 01:37:53;;;;;;;14.98;10.32;;;;;;;25.57;63.67;100783.88;5072953;27;97845;-70
2022/08/27 01:40:22;;;;;;;20.15;10.25;;;;;;;25.87;62.70;100779.16;5064550;27;96790;-70
2022/08/27 01:42:53;;;;;;;13.48;10.30;;;;;;;25.92;62.45;100779.56;5068286;27;96810;-71
2022/08/27 01:45:22;;;;;;;16.73;9.95;;;;;;;26.09;62.07;100778.72;5068132;27;99192;-71
2022/08/27 01:47:49;;;;;;;17.67;10.15;;;;;;;26.12;62.19;100787.38;5068103;27;99273;-71
2022/08/27 01:50:18;;;;;;;15.88;10.50;;;;;;;25.91;62.12;100786.84;5069275;27;96706;-71
2022/08/27 01:52:45;;;;;;;15.02;10.65;;;;;;;25.75;63.08;100792.03;5060243;27;98166;-71
2022/08/27 01:55:18;;;;;;;17.95;11.25;;;;;;;25.57;64.16;100796.53;5062887;27;101289;-71
2022/08/27 01:57:48;;;;;;;16.95;10.35;;;;;;;25.57;63.90;100792.00;5064838;27;99445;-71
2022/08/27 02:00:23;;;;;;;18.67;11.20;;;;;;;25.66;63.70;100793.81;5068348;27;96694;-71
2022/08/27 02:02:50;;;;;;;21.60;11.57;;;;;;;25.50;64.63;100790.00;5064324;27;97021;-70
2022/08/27 02:05:17;;;;;;;20.88;11.88;;;;;;;25.26;65.38;100790.53;5072975;27;99180;-72
2022/08/27 02:07:44;;;;;;;23.35;11.25;;;;;;;25.17;66.03;100794.09;5067713;27;97920;-71
2022/08/27 02:10:14;;;;;;;17.67;11.32;;;;;;;25.38;65.56;100792.06;5072541;27;96736;-71
2022/08/27 02:12:40;;;;;;;18.83;11.15;;;;;;;25.62;64.37;100791.53;5066811;27;96780;-70
2022/08/27 02:15:09;;;;;;;19.85;11.95;;;;;;;25.78;63.83;100799.88;5070807;27;99146;-70
2022/08/27 02:17:37;;;;;;;17.17;10.98;;;;;;;25.69;63.61;100790.78;5072708;27;99106;-70
2022/08/27 02:20:05;;;;;;;27.02;13.40;;;;;;;25.98;62.87;100790.63;5071760;27;96825;-70
2022/08/27 02:22:32;;;;;;;24.08;14.07;;;;;;;25.91;63.09;100786.84;5066856;27;97233;-70
2022/08/27 02:24:58;;;;;;;27.33;13.40;;;;;;;25.51;64.41;100792.56;5069966;27;99077;-70
2022/08/27 02:27:24;;;;;;;21.90;13.15;;;;;;;25.48;64.72;100792.00;5065526;27;97726;-70
2022/08/27 02:29:52;;;;;;;25.52;13.75;;;;;;;25.16;66.36;100793.25;5066258;27;96813;-70
2022/08/27 02:32:19;;;;;;;26.98;13.95;;;;;;;25.07;66.81;100793.28;5067718;27;96783;-71
2022/08/27 02:34:46;;;;;;;21.83;12.75;;;;;;;25.07;66.66;100801.41;5066573;27;98899;-70
2022/08/27 02:37:13;;;;;;;29.83;14.80;;;;;;;24.72;68.02;100802.84;5071229;27;98802;-71
2022/08/27 02:39:40;;;;;;;26.80;14.68;;;;;;;24.61;68.98;100794.91;5073663;27;96838;-71
2022/08/27 02:42:07;;;;;;;24.73;14.45;;;;;;;24.58;69.03;100793.34;5070700;27;97131;-71
2022/08/27 02:44:34;;;;;;;24.08;14.90;;;;;;;24.66;69.18;100795.31;5072778;27;97620;-71
2022/08/27 02:47:01;;;;;;;28.38;15.25;;;;;;;24.68;69.14;100804.13;5066059;27;98970;-71
2022/08/27 02:49:28;;;;;;;23.42;13.75;;;;;;;24.85;68.07;100799.84;5069252;27;96820;-70
2022/08/27 02:51:57;;;;;;;27.00;15.35;;;;;;;24.85;68.42;100799.84;5067750;27;96862;-70
2022/08/27 02:54:25;;;;;;;28.02;15.50;;;;;;;24.85;68.44;100800.69;5064970;27;99561;-70
2022/08/27 02:56:52;;;;;;;28.13;14.80;;;;;;;25.04;67.88;100802.53;5072796;27;97687;-70
2022/08/27 02:59:19;;;;;;;27.27;16.00;;;;;;;24.93;68.51;100800.00;5075035;27;97164;-70
2022/08/27 03:01:46;;;;;;;23.95;14.57;;;;;;;25.44;66.58;100796.00;5079850;27;96871;-70
2022/08/27 03:04:14;;;;;;;25.88;14.70;;;;;;;25.20;67.40;100801.94;5069672;27;98913;-70
2022/08/27 03:06:42;;;;;;;25.42;15.68;;;;;;;25.35;66.90;100797.75;5078103;27;98873;-70
2022/08/27 03:09:10;;;;;;;30.00;16.38;;;;;;;25.04;67.42;100801.69;5079735;27;96843;-70
2022/08/27 03:11:38;;;;;;;29.50;15.65;;;;;;;25.09;67.75;100812.91;5079032;27;97378;-70
2022/08/27 03:14:06;;;;;;;32.22;18.15;;;;;;;24.89;68.22;100812.06;5068667;27;99001;-70
2022/08/27 03:16:36;;;;;;;30.63;17.08;;;;;;;24.45;69.89;100813.53;5075863;27;98952;-70
2022/08/27 03:19:02;;;;;;;32.72;17.10;;;;;;;24.37;70.68;100810.66;5067852;27;96827;-72
2022/08/27 03:21:30;;;;;;;34.10;19.27;;;;;;;24.66;69.87;100818.78;5075458;27;96775;-70
2022/08/27 03:24:01;;;;;;;28.55;17.70;;;;;;;24.74;69.02;100818.94;5075819;27;99144;-71
2022/08/27 03:26:30;;;;;;;31.92;17.77;;;;;;;24.87;68.72;100814.94;5078300;27;98755;-70
2022/08/27 03:28:56;;;;;;;29.02;18.92;;;;;;;24.68;69.35;100806.81;5078734;27;96874;-70
2022/08/27 03:31:28;;;;;;;35.33;19.55;;;;;;;24.69;69.26;100810.38;5076662;27;96849;-70
2022/08/27 03:33:56;;;;;;;35.30;20.02;;;;;;;24.48;69.90;100803.28;5074983;27;99019;-70
2022/08/27 03:36:26;;;;;;;34.17;18.60;;;;;;;24.52;70.10;100803.84;5075095;27;98834;-71
2022/08/27 03:38:52;;;;;;;40.65;20.13;;;;;;;24.54;69.93;100796.47;5082013;27;97372;-72
2022/08/27 03:41:19;;;;;;;40.88;20.00;;;;;;;24.69;69.58;100799.56;5080656;27;96781;-71
2022/08/27 03:43:48;;;;;;;37.17;21.23;;;;;;;24.72;69.22;100792.03;5072801;27;98597;-72
2022/08/27 03:46:16;;;;;;;35.22;19.75;;;;;;;24.84;69.08;100796.28;5072347;27;99111;-69
2022/08/27 03:48:42;;;;;;;34.67;19.73;;;;;;;25.02;68.58;100791.00;5076121;27;97458;-71
2022/08/27 03:51:11;;;;;;;32.35;19.92;;;;;;;25.01;68.54;100790.16;5073398;27;96897;-71
2022/08/27 03:53:40;;;;;;;38.17;19.85;;;;;;;24.93;68.73;100795.47;5078861;27;99051;-70
2022/08/27 03:56:07;;;;;;;33.63;19.60;;;;;;;24.90;68.72;100789.47;5070354;27;99580;-70
2022/08/27 03:58:34;;;;;;;31.63;19.23;;;;;;;24.69;69.57;100795.03;5079088;27;96731;-70
2022/08/27 04:01:03;;;;;;;31.38;19.15;;;;;;;24.74;69.53;100794.59;5075081;27;96925;-70
2022/08/27 04:03:30;;;;;;;29.10;18.65;;;;;;;24.65;69.91;100790.91;5078190;27;99908;-70
2022/08/27 04:05:57;;;;;;;33.03;19.88;;;;;;;24.50;70.68;100786.94;5071779;27;98880;-71
2022/08/27 04:08:25;;;;;;;34.55;19.27;;;;;;;24.42;70.69;100786.78;5073532;27;96783;-71
2022/08/27 04:10:53;;;;;;;30.25;18.33;;;;;;;24.47;70.61;100781.84;5072810;27;96794;-71
2022/08/27 04:16:02;;;;;;;33.20;17.85;;;;;;;24.57;70.10;100780.81;5054586;27;97274;-70
2022/08/27 04:18:28;;;;;;;29.33;18.27;;;;;;;24.22;71.70;100781.38;5065960;27;97144;-70
2022/08/27 04:20:55;;;;;;;27.20;18.25;;;;;;;24.44;70.81;100784.81;5072310;27;96853;-70
2022/08/27 04:23:22;;;;;;;27.95;17.77;;;;;;;24.49;70.41;100793.31;5071679;27;98868;-71
2022/08/27 04:25:48;;;;;;;33.15;18.13;;;;;;;24.34;70.73;100787.53;5074286;27;99112;-71
2022/08/27 04:28:16;;;;;;;35.83;18.85;;;;;;;24.46;70.20;100791.78;5064473;27;96934;-70
2022/08/27 04:30:44;;;;;;;35.90;18.67;;;;;;;24.66;69.94;100795.31;5074141;27;96816;-70
2022/08/27 04:33:13;;;;;;;28.85;18.17;;;;;;;24.68;69.12;100798.72;5073794;27;98830;-70
2022/08/27 04:35:39;;;;;;;30.35;18.10;;;;;;;24.58;69.77;100806.84;5072705;27;98839;-70
2022/08/27 04:38:07;;;;;;;24.95;17.67;;;;;;;24.68;69.43;100803.28;5074414;27;96803;-70
2022/08/27 04:43:21;;;;;;;26.10;17.90;;;;;;;25.05;68.31;100800.69;5068923;27;97078;-71
2022/08/27 04:45:49;;;;;;;34.25;17.95;;;;;;;25.17;67.21;100799.53;5074755;27;98852;-70
2022/08/27 04:48:18;;;;;;;28.48;17.38;;;;;;;25.14;67.40;100810.66;5067746;27;96767;-70
2022/08/27 04:50:46;;;;;;;33.33;18.83;;;;;;;24.92;68.18;100807.25;5071320;27;96861;-70
2022/08/27 04:53:17;;;;;;;26.83;17.85;;;;;;;24.78;69.00;100813.09;5072929;27;99388;-70
2022/08/27 04:55:46;;;;;;;30.40;18.13;;;;;;;24.81;68.89;100818.19;5069372;27;99006;-71
2022/08/27 04:58:13;;;;;;;26.85;18.02;;;;;;;24.86;69.11;100813.22;5070907;27;97240;-70
2022/08/27 05:00:48;;;;;;;35.25;19.98;;;;;;;24.70;68.93;100812.94;5068336;27;97337;-70
2022/08/27 05:03:15;;;;;;;34.08;18.25;;;;;;;24.57;69.71;100805.13;5064153;27;99447;-70
2022/08/27 05:05:43;;;;;;;31.02;19.35;;;;;;;24.62;69.98;100805.53;5072356;27;99052;-70
2022/08/27 05:08:12;;;;;;;27.60;18.80;;;;;;;24.77;68.95;100811.38;5074216;27;96824;-70
2022/08/27 05:10:41;;;;;;;30.13;18.25;;;;;;;24.66;69.80;100808.84;5070310;27;96764;-70
2022/08/27 05:13:09;;;;;;;26.67;17.67;;;;;;;24.71;69.82;100814.66;5074165;27;98952;-70
2022/08/27 05:15:36;;;;;;;30.23;18.13;;;;;;;24.70;69.26;100812.94;5068349;27;98832;-70
2022/08/27 05:18:06;;;;;;;32.22;18.05;;;;;;;24.62;69.72;100810.09;5074251;27;96874;-70
2022/08/27 05:20:34;;;;;;;30.38;18.77;;;;;;;24.70;69.74;100803.97;5062531;27;96822;-71
2022/08/27 05:23:01;;;;;;;26.60;17.50;;;;;;;24.72;68.88;100812.81;5066275;27;97680;-71
2022/08/27 05:25:29;;;;;;;26.85;17.33;;;;;;;25.13;67.87;100809.78;5067354;27;99180;-71
2022/08/27 05:27:58;;;;;;;22.75;16.50;;;;;;;25.04;67.53;100810.66;5069879;27;96843;-70
2022/08/27 05:30:26;;;;;;;25.48;16.30;;;;;;;24.94;68.33;100813.34;5061459;27;96898;-70
2022/08/27 05:32:53;;;;;;;22.33;15.75;;;;;;;24.64;68.80;100805.41;5067707;27;99304;-69
2022/08/27 05:35:22;;;;;;;21.63;15.43;;;;;;;24.80;68.84;100816.50;5069294;27;99367;-72
2022/08/27 05:37:50;;;;;;;22.38;14.73;;;;;;;24.67;68.94;100809.69;5070165;27;97221;-71
2022/08/27 05:40:18;;;;;;;22.05;15.05;;;;;;;24.90;68.52;100814.66;5067905;27;96900;-71
2022/08/27 05:42:46;;;;;;;23.48;15.02;;;;;;;24.76;69.13;100811.50;5071426;27;98925;-71
2022/08/27 05:45:15;;;;;;;21.52;14.88;;;;;;;25.03;68.02;100817.06;5070242;27;98895;-70
2022/08/27 05:47:42;;;;;;;19.38;13.55;;;;;;;25.32;66.81;100811.56;5073368;27;96823;-71
2022/08/27 05:50:08;;;;;;;22.92;15.05;;;;;;;25.25;66.99;100808.59;5069696;27;96830;-70
2022/08/27 05:52:35;;;;;;;21.55;13.98;;;;;;;25.52;66.21;100815.06;5069993;27;102254;-70
2022/08/27 05:55:02;;;;;;;20.25;12.93;;;;;;;25.63;65.23;100810.34;5062071;27;98820;-70
2022/08/27 05:57:31;;;;;;;22.83;13.80;;;;;;;25.37;66.11;100812.84;5073181;27;97506;-70
2022/08/27 06:02:45;;;;;;;;;;;;;;;25.36;65.82;100815.69;5062467;27;98261;-71
2022/08/27 06:05:12;;;;;;;17.00;12.43;;;;;;;25.59;64.71;100818.91;5069171;27;98691;-70
2022/08/27 06:07:38;;;;;;;18.85;12.07;;;;;;;25.32;65.86;100817.00;5073666;27;96802;-70
2022/08/27 06:10:08;;;;;;;17.02;11.00;;;;;;;25.28;65.08;100821.81;5073259;27;97207;-70
2022/08/27 06:12:37;;;;;;;17.67;11.68;;;;;;;25.16;65.81;100819.44;5067434;27;98712;-70
2022/08/27 06:15:06;;;;;;;19.17;12.77;;;;;;;25.02;66.17;100829.72;5066503;27;99055;-70
2022/08/27 06:17:33;;;;;;;14.85;11.45;;;;;;;25.37;65.96;100826.34;5067723;27;96846;-71
2022/08/27 06:19:59;;;;;;;18.30;12.60;;;;;;;25.59;64.78;100827.88;5068599;27;96901;-71
2022/08/27 06:22:25;;;;;;;16.92;11.43;;;;;;;25.75;64.11;100829.94;5067568;27;99100;-71
2022/08/27 06:24:52;;;;;;;16.33;12.30;;;;;;;25.80;63.50;100820.34;5069513;27;98959;-71
2022/08/27 06:27:19;;;;;;;14.32;11.98;;;;;;;25.54;64.88;100824.72;5068995;27;96841;-70
2022/08/27 06:29:47;;;;;;;16.48;11.02;;;;;;;25.66;64.42;100818.16;5071400;27;96829;-70
2022/08/27 06:32:16;;;;;;;15.55;11.00;;;;;;;26.06;63.07;100819.63;5068354;27;99313;-71
2022/08/27 06:34:43;;;;;;;13.73;9.38;;;;;;;25.85;63.05;100821.78;5072532;27;99208;-70
2022/08/27 06:37:09;;;;;;;12.85;8.95;;;;;;;25.76;63.29;100828.94;5069364;27;96889;-71
2022/08/27 06:39:38;;;;;;;14.00;9.23;;;;;;;25.59;64.23;100827.03;5074031;27;96821;-72
2022/08/27 06:42:05;;;;;;;13.60;9.48;;;;;;;25.70;63.99;100834.94;5070371;27;101698;-71
2022/08/27 06:44:31;;;;;;;10.82;9.15;;;;;;;25.88;63.08;100833.13;5066977;27;98854;-70
2022/08/27 06:46:59;;;;;;;9.55;7.97;;;;;;;25.70;63.28;100841.22;5067249;27;96995;-70
2022/08/27 06:49:26;;;;;;;13.32;8.07;;;;;;;25.69;63.38;100836.78;5072534;27;97201;-71
2022/08/27 06:51:52;;;;;;;13.80;8.43;;;;;;;25.77;63.27;100836.91;5068349;27;100956;-71
2022/08/27 06:54:18;;;;;;;10.43;7.45;;;;;;;26.04;61.98;100843.31;5071033;27;98893;-72
2022/08/27 06:56:45;;;;;;;9.60;7.18;;;;;;;26.25;61.58;100845.78;5068098;27;96854;-72
2022/08/27 06:59:14;;;;;;;9.05;7.38;;;;;;;26.25;61.17;100843.94;5070836;27;97333;-71
2022/08/27 07:01:43;;;;;;;8.27;6.40;;;;;;;25.91;61.96;100851.81;5067873;27;100048;-72
2022/08/27 07:04:12;;;;;;;12.55;7.35;;;;;;;26.02;61.70;100853.44;5071422;27;100199;-71
2022/08/27 07:06:40;;;;;;;8.75;6.47;;;;;;;25.88;62.12;100860.22;5064959;27;96758;-70
2022/08/27 07:09:08;;;;;;;7.65;6.82;;;;;;;26.02;61.94;100850.72;5072708;27;96927;-70
2022/08/27 07:11:35;;;;;;;7.95;7.15;;;;;;;26.22;61.65;100855.03;5071032;27;98706;-71
2022/08/27 07:14:01;;;;;;;12.32;7.32;;;;;;;26.17;61.94;100860.06;5070384;27;99272;-72
2022/08/27 07:16:29;;;;;;;13.70;7.50;;;;;;;26.36;61.24;100861.81;5062349;27;97478;-70
2022/08/27 07:18:59;;;;;;;7.93;7.13;;;;;;;26.40;60.98;100861.34;5073153;27;96989;-70
2022/08/27 07:21:29;;;;;;;15.30;9.13;;;;;;;26.46;60.60;100866.16;5072345;27;97889;-70
2022/08/27 07:23:58;;;;;;;15.73;10.57;;;;;;;26.46;60.23;100860.72;5071547;27;98895;-71
2022/08/27 07:26:27;;;;;;;10.40;8.02;;;;;;;26.40;60.79;100857.78;5071652;27;98020;-71
2022/08/27 07:28:53;;;;;;;13.90;9.02;;;;;;;26.25;61.18;100862.91;5071416;27;96872;-71
2022/08/27 07:31:22;;;;;;;9.43;8.15;;;;;;;26.11;61.83;100871.50;5064821;27;98889;-71
2022/08/27 07:33:49;;;;;;;15.02;8.77;;;;;;;26.09;62.12;100862.66;5072035;27;99048;-70
2022/08/27 07:36:15;;;;;;;14.15;7.82;;;;;;;26.14;61.90;100876.59;5060907;27;96715;-71
2022/08/27 07:38:43;;;;;;;9.32;7.50;;;;;;;25.78;62.34;100872.94;5071610;27;97442;-70
2022/08/27 07:41:12;;;;;;;9.38;7.82;;;;;;;26.03;62.03;100871.41;5068158;27;97909;-70
2022/08/27 07:46:24;;;;;;;8.55;7.38;;;;;;;26.37;61.44;100863.53;5071753;27;96776;-71
2022/08/27 07:48:51;;;;;;;9.95;7.60;;;;;;;26.51;60.75;100871.13;5075804;27;96861;-71
2022/08/27 07:51:20;;;;;;;12.80;7.95;;;;;;;26.37;60.90;100867.09;5074656;27;99218;-70
2022/08/27 07:53:48;;;;;;;12.15;7.75;;;;;;;25.96;62.29;100864.88;5075314;27;98763;-70
2022/08/27 07:56:17;;;;;;;11.60;7.80;;;;;;;25.97;62.06;100863.88;5071540;27;97224;-70
2022/08/27 07:58:45;;;;;;;11.77;7.63;;;;;;;25.76;62.66;100862.25;5070541;27;96926;-70
2022/08/27 08:01:12;;;;;;;14.23;8.27;;;;;;;26.06;62.08;100862.94;5074060;27;99013;-70
2022/08/27 08:03:39;;;;;;;10.20;7.85;;;;;;;26.47;61.30;100864.28;5069837;27;98805;-71
2022/08/27 08:06:08;;;;;;;10.65;7.53;;;;;;;26.82;60.16;100866.16;5074758;27;97320;-71
2022/08/27 08:08:38;;;;;;;10.43;6.78;;;;;;;26.69;59.77;100854.84;5069701;27;97242;-71
2022/08/27 08:11:07;;;;;;;11.07;7.35;;;;;;;26.79;59.36;100861.88;5071768;27;101271;-71
2022/08/27 08:13:34;;;;;;;9.10;7.38;;;;;;;26.98;58.76;100867.16;5071717;27;99237;-71
2022/08/27 08:16:00;;;;;;;10.05;5.90;;;;;;;26.74;59.26;100866.06;5072820;27;97086;-70
2022/08/27 08:18:27;;;;;;;10.63;7.07;;;;;;;26.86;59.26;100868.41;5068490;27;96816;-70
2022/08/27 08:20:59;;;;;;;12.95;8.80;;;;;;;26.67;59.19;100876.69;5074736;27;98800;-71
2022/08/27 08:23:25;;;;;;;10.80;7.97;;;;;;;26.73;59.11;100869.78;5071479;27;98817;-72
2022/08/27 08:25:52;;;;;;;13.57;7.53;;;;;;;26.63;59.18;100874.47;5074265;27;96835;-72
2022/08/27 08:28:21;;;;;;;12.10;8.85;;;;;;;26.63;59.39;100871.75;5072529;27;96903;-70
2022/08/27 08:30:51;;;;;;;12.20;8.10;;;;;;;26.84;58.76;100875.84;5071612;27;98539;-71
2022/08/27 08:33:17;;;;;;;13.32;8.95;;;;;;;26.73;58.71;100873.34;5063509;27;97512;-70
2022/08/27 08:35:44;;;;;;;16.83;8.20;;;;;;;26.68;59.45;100869.41;5073062;27;96766;-71
2022/08/27 08:38:10;;;;;;;12.30;8.13;;;;;;;26.75;59.23;100871.34;5068424;27;97216;-72
2022/08/27 08:40:41;;;;;;;12.82;7.60;;;;;;;27.11;58.07;100866.75;5067592;27;98959;-71
2022/08/27 08:43:21;;;;;;;14.15;7.85;;;;;;;27.31;57.65;100857.41;5074035;27;100163;-72
2022/08/27 08:45:50;;;;;;;14.38;8.68;;;;;;;26.85;58.47;100855.00;5073768;27;96922;-70
2022/08/27 08:48:22;;;;;;;17.90;11.18;;;;;;;26.76;59.00;100845.94;5065057;27;96807;-70
2022/08/27 08:50:57;;;;;;;14.52;6.95;;;;;;;27.10;58.14;100843.38;5068211;27;98149;-72
2022/08/27 08:53:36;;;;;;;10.50;7.80;;;;;;;27.12;57.88;100835.91;5067014;27;98785;-71
2022/08/27 08:56:07;;;;;;;18.02;7.60;;;;;;;27.29;57.41;100836.91;5068558;27;97117;-71
2022/08/27 08:58:43;;;;;;;11.98;8.02;;;;;;;27.25;57.35;100839.06;5073217;27;96881;-70
2022/08/27 09:01:20;;;;;;;11.05;7.75;;;;;;;27.35;57.22;100847.97;5069017;27;99383;-74
2022/08/27 09:03:51;;;;;;;10.73;7.82;;;;;;;27.05;58.03;100845.69;5069666;27;101825;-71
2022/08/27 09:06:23;;;;;;;12.45;7.88;;;;;;;27.21;57.66;100848.53;5064731;27;97077;-71
2022/08/27 09:08:50;;;;;;;10.00;7.43;;;;;;;26.88;58.24;100860.97;5074557;27;96822;-71
2022/08/27 09:11:27;;;;;;;14.48;8.43;;;;;;;26.91;58.62;100854.41;5065727;27;98757;-71
2022/08/27 09:13:58;;;;;;;11.10;7.53;;;;;;;26.70;59.19;100851.16;5073713;27;99012;-72
2022/08/27 09:16:27;;;;;;;16.95;7.97;;;;;;;26.93;58.74;100847.81;5073961;27;96886;-72
2022/08/27 09:19:01;;;;;;;14.07;7.18;;;;;;;26.47;59.78;100848.03;5073961;27;97133;-71
2022/08/27 09:21:33;;;;;;;12.25;6.90;;;;;;;26.92;58.16;100832.53;5067829;27;99004;-71
2022/08/27 09:24:08;;;;;;;9.93;6.07;;;;;;;27.09;58.18;100836.25;5067715;27;98204;-72
2022/08/27 09:26:37;;;;;;;10.30;6.20;;;;;;;26.93;58.48;100831.53;5073853;27;96955;-70
2022/08/27 09:29:18;;;;;;;13.13;7.20;;;;;;;26.74;59.36;100836.25;5068020;27;96869;-70
2022/08/27 09:31:52;;;;;;;9.40;7.05;;;;;;;26.46;59.99;100830.06;5073304;27;99027;-71
2022/08/27 09:34:19;;;;;;;11.73;7.10;;;;;;;26.41;60.55;100824.28;5066592;27;98705;-71
2022/08/27 09:36:56;;;;;;;8.02;6.15;;;;;;;26.67;60.16;100813.50;5070599;27;97008;-71
2022/08/27 09:39:28;;;;;;;11.50;6.07;;;;;;;27.42;58.03;100821.03;5064850;27;96812;-70
2022/08/27 09:41:55;;;;;;;9.48;5.53;;;;;;;27.54;57.64;100818.91;5073813;27;101806;-70
2022/08/27 09:44:22;;;;;;;13.77;7.95;;;;;;;27.98;56.74;100822.31;5071025;27;99068;-70
2022/08/27 09:46:56;;;;;;;12.80;6.82;;;;;;;27.93;56.78;100825.53;5071367;27;96863;-71
2022/08/27 09:49:25;;;;;;;14.40;6.90;;;;;;;28.24;56.30;100839.41;5067885;27;97415;-71
2022/08/27 09:51:53;;;;;;;9.90;5.93;;;;;;;27.87;56.89;100847.06;5073317;27;98926;-70
2022/08/27 09:54:40;;;;;;;7.93;5.93;;;;;;;28.24;56.10;100844.84;5070435;27;99352;-70
2022/08/27 09:57:08;;;;;;;8.57;5.47;;;;;;;28.25;55.87;100851.97;5073364;27;96792;-72
2022/08/27 09:59:37;;;;;;;5.25;4.75;;;;;;;27.69;57.05;100860.72;5071166;27;97141;-70
2022/08/27 10:02:12;;;;;;;14.80;6.35;;;;;;;27.29;58.72;100855.88;5073715;27;99292;-70
2022/08/27 10:04:42;;;;;;;6.53;5.05;;;;;;;27.19;58.32;100872.25;5074678;27;99238;-71
2022/08/27 10:07:22;;;;;;;11.25;5.93;;;;;;;27.51;57.65;100873.47;5065668;27;97223;-71
2022/08/27 10:09:54;;;;;;;7.97;6.20;;;;;;;27.97;56.89;100869.50;5073218;27;96810;-70
2022/08/27 10:12:27;;;;;;;9.55;5.82;;;;;;;28.20;56.01;100876.06;5067137;27;98238;-71
2022/08/27 10:15:03;;;;;;;13.15;5.85;;;;;;;28.53;55.51;100877.84;5068242;27;98989;-70
2022/08/27 10:17:42;;;;;;;8.10;5.93;;;;;;;28.42;54.83;100878.16;5063045;27;96698;-70
2022/08/27 10:20:17;;;;;;;8.60;5.63;;;;;;;28.71;54.04;100877.72;5073239;27;96740;-72
2022/08/27 10:22:51;;;;;;;8.40;5.40;;;;;;;28.89;53.86;100878.41;5067192;27;99377;-71
2022/08/27 10:25:28;;;;;;;11.68;5.10;;;;;;;28.75;53.76;100881.00;5066652;27;99204;-71
2022/08/27 10:28:10;;;;;;;6.97;5.15;;;;;;;28.98;53.34;100882.00;5071452;27;96930;-71
2022/08/27 10:30:53;;;;;;;6.05;4.80;;;;;;;28.93;53.15;100877.09;5068067;27;96864;-71
2022/08/27 10:33:27;;;;;;;6.80;5.57;;;;;;;29.08;53.18;100884.56;5070921;27;99384;-71
2022/08/27 10:36:02;;;;;;;9.55;5.03;;;;;;;29.18;52.49;100890.66;5071692;27;98585;-71
2022/08/27 10:38:38;;;;;;;7.17;5.33;;;;;;;29.16;52.63;100885.38;5072445;27;96917;-70
2022/08/27 10:41:18;;;;;;;13.10;7.68;;;;;;;28.72;53.58;100887.56;5066385;27;96856;-70
2022/08/27 10:44:05;;;;;;;7.57;5.93;;;;;;;28.10;55.17;100889.75;5068802;27;101348;-71
2022/08/27 10:46:54;;;;;;;11.05;5.25;;;;;;;28.39;55.18;100883.09;5054473;27;101844;-71
2022/08/27 10:49:37;;;;;;;9.77;5.30;;;;;;;28.54;54.42;100884.16;5068482;27;97243;-70
2022/08/27 10:52:15;;;;;;;11.45;5.72;;;;;;;28.17;55.50;100894.56;5068023;27;96796;-70
2022/08/27 10:54:51;;;;;;;10.07;5.22;;;;;;;28.59;54.58;100894.50;5062219;27;99343;-71
2022/08/27 10:57:26;;;;;;;7.20;5.32;;;;;;;28.04;56.17;100890.41;5068440;27;98866;-71
2022/08/27 11:00:04;;;;;;;7.50;5.38;;;;;;;29.07;53.79;100891.03;5073046;27;96695;-71
2022/08/27 11:02:34;;;;;;;6.15;4.35;;;;;;;29.21;53.27;100893.06;5072973;27;96744;-70
2022/08/27 11:05:13;;;;;;;5.63;4.82;;;;;;;29.07;53.42;100902.75;5066919;27;97907;-70
2022/08/27 11:07:43;;;;;;;9.02;5.25;;;;;;;29.07;53.18;100896.47;5072262;27;99252;-70
2022/08/27 11:10:18;;;;;;;10.40;4.85;;;;;;;28.87;53.68;100895.94;5069055;27;96752;-70
2022/08/27 11:12:49;;;;;;;14.20;6.43;;;;;;;28.59;53.96;100894.50;5068006;27;96692;-71
2022/08/27 11:15:20;;;;;;;16.02;5.80;;;;;;;28.66;54.19;100896.41;5058979;27;97838;-71
2022/08/27 11:17:56;;;;;;;7.22;4.70;;;;;;;28.59;54.14;100897.22;5071924;27;98884;-70
2022/08/27 11:20:30;;;;;;;5.35;4.07;;;;;;;28.29;54.74;100891.38;5070755;27;96646;-70
2022/08/27 11:23:03;;;;;;;7.60;4.30;;;;;;;28.65;54.09;100889.25;5076679;27;96852;-70
2022/08/27 11:25:47;;;;;;;10.32;5.05;;;;;;;28.59;54.24;100895.38;5066164;27;99229;-71
2022/08/27 11:28:14;;;;;;;5.30;3.47;;;;;;;28.43;54.75;100892.59;5065970;27;98214;-70
2022/08/27 11:30:51;;;;;;;5.25;3.70;;;;;;;28.37;54.65;100887.81;5070981;27;96632;-70
2022/08/27 11:33:25;;;;;;;6.13;4.13;;;;;;;28.05;55.77;100892.13;5065643;27;96872;-70
2022/08/27 11:36:13;;;;;;;7.65;4.50;;;;;;;28.20;55.37;100896.97;5070330;27;98327;-71